Brazoria County Airport
KLBX : now visible

Airfield :











YOU CAN JOIN US ON...

 
LOGIN :

Register | Disclaimer

   EN    FR    IT 

 









Legend :    VFR   Marginal VFR   IFR   Intensive IFR   Very Intensive IFR
Visi :
Ceiling :
>= 8 km
>= 3000ft
5 to 8 km
1000 to 3000 ft
1500m to 5 km
500 to 1000 ft
800 to 1500m
200 to 500 ft
< 800m
< 200 ft
Symbols :   Thunderstorms  Fog  Heavy snow  Heavy precipitations  Wind > 20 kt







- Airport Elevation : 25 ft


KLBX - Brazoria County

CURRENT METAR :
  • 160553Z AUTO 00000KT 10SM FEW110 24/23 A2998 RMK AO2 RAB12E35 SLP152 P0019 60019 T02390228 10300 20233 403280206 50002

EXPIRED METARs :
  • 160526Z AUTO 14004KT 3SM +RA BR FEW026 BKN036 BKN085 24/22 A2999 RMK AO2 RAB12 P0019 T02440222
  • 160520Z AUTO 11007G22KT 1 3/4SM +RA FEW026 BKN031 BKN080 25/22 A2999 RMK AO2 RAB12 P0016 T02500222
  • 160453Z AUTO 07004KT 10SM CLR 25/23 A2998 RMK AO2 SLP153 T02500228
  • 160353Z AUTO 01007KT 9SM CLR 24/23 A2998 RMK AO2 SLP153 T02390228

TAF KLBX
Valid from the 16 at 06:00 until the 17 at 06:00 UTC


160545Z 1606/1706 01005KT P6SM FEW040 SCT250
FM160900 02004KT P6SM VCSH SCT030
FM161500 06011KT P6SM VCSH SCT035 SCT150
FM170200 09006KT P6SM VCSH SCT040 BKN100
No reported NOTAMs for that airfield.



MET'MAP, your aeronautical weather chart ! - Copyright ORBIFLY December 2007 - Disclaimer

ORBIFLY MET'MAP TEAM :

Programming & Development : Alexandra Zaïnal
Concept & Development : Baudouin d'Aumeries
Co-Development & Prog : Marc-Olivier Méhu
Technical & hardware support : Manuel Goepfert

Contact : metmap@orbifly.com




SOURCES & CREDITS :

   NOAA       Earth
Advisory